Terminal Aerodrome Forecast
Issued by NWS

Home | Current Version | Previous Version | Text Only | Print | Product List | Glossary On
Versions: 1 2 3 4 5 6 7 8 9 10 11 12 13 14 15 16 17 18 19 20 21 22 23 24 25 26 27 28 29 30 31 32 33 34 35 36 37
277
FTUS45 KCYS 211720
TAFAIA
TAF
KAIA 211720Z 2118/2218 15008KT P6SM OVC015
      TEMPO 2118/2120 4SM -SN BR OVC005
     FM220000 12012KT P6SM BKN040
     FM220700 18009KT P6SM SCT060
     FM221000 18008KT 1SM BR BKN015
     FM221500 21009KT P6SM SCT050=

USA.gov is the U.S. government's official web portal to all federal, state and local government web resources and services.